sensor_id;sensor_type;location;lat;lon;timestamp;temperature;humidity
47765;DHT22;33529;49.242;8.670;2023-04-23T00:02:08;12.70;99.90
47765;DHT22;33529;49.242;8.670;2023-04-23T00:04:38;12.80;99.90
47765;DHT22;33529;49.242;8.670;2023-04-23T00:07:05;12.80;99.90
47765;DHT22;33529;49.242;8.670;2023-04-23T00:09:32;12.70;99.90
47765;DHT22;33529;49.242;8.670;2023-04-23T00:12:00;12.70;99.90
47765;DHT22;33529;49.242;8.670;2023-04-23T00:14:27;12.60;99.90
47765;DHT22;33529;49.242;8.670;2023-04-23T00:16:54;12.60;99.90
47765;DHT22;33529;49.242;8.670;2023-04-23T00:19:21;12.60;99.90
47765;DHT22;33529;49.242;8.670;2023-04-23T00:21:48;12.70;99.90
47765;DHT22;33529;49.242;8.670;2023-04-23T00:24:14;12.60;99.90
47765;DHT22;33529;49.242;8.670;2023-04-23T00:26:41;12.50;99.90
47765;DHT22;33529;49.242;8.670;2023-04-23T00:29:08;12.50;99.90
47765;DHT22;33529;49.242;8.670;2023-04-23T00:31:35;12.50;99.90
47765;DHT22;33529;49.242;8.670;2023-04-23T00:34:02;12.60;99.90
47765;DHT22;33529;49.242;8.670;2023-04-23T00:36:29;12.60;99.90
47765;DHT22;33529;49.242;8.670;2023-04-23T00:38:56;12.60;99.90
47765;DHT22;33529;49.242;8.670;2023-04-23T00:41:23;12.60;99.90
47765;DHT22;33529;49.242;8.670;2023-04-23T00:43:51;12.70;99.90
47765;DHT22;33529;49.242;8.670;2023-04-23T00:46:21;12.60;99.90
47765;DHT22;33529;49.242;8.670;2023-04-23T00:48:49;12.60;99.90
47765;DHT22;33529;49.242;8.670;2023-04-23T00:51:17;12.60;99.90
47765;DHT22;33529;49.242;8.670;2023-04-23T00:53:44;12.50;99.90
47765;DHT22;33529;49.242;8.670;2023-04-23T00:56:11;12.50;99.90
47765;DHT22;33529;49.242;8.670;2023-04-23T00:58:38;12.50;99.90
47765;DHT22;33529;49.242;8.670;2023-04-23T01:01:06;12.50;99.90
47765;DHT22;33529;49.242;8.670;2023-04-23T01:03:34;12.50;99.90
47765;DHT22;33529;49.242;8.670;2023-04-23T01:06:03;12.50;99.90
47765;DHT22;33529;49.242;8.670;2023-04-23T01:08:30;12.50;99.90
47765;DHT22;33529;49.242;8.670;2023-04-23T01:10:58;12.50;99.90
47765;DHT22;33529;49.242;8.670;2023-04-23T01:13:26;12.50;99.90
47765;DHT22;33529;49.242;8.670;2023-04-23T01:15:56;12.40;99.90
47765;DHT22;33529;49.242;8.670;2023-04-23T01:18:25;12.40;99.90
47765;DHT22;33529;49.242;8.670;2023-04-23T01:20:52;12.40;99.90
47765;DHT22;33529;49.242;8.670;2023-04-23T01:23:19;12.40;99.90
47765;DHT22;33529;49.242;8.670;2023-04-23T01:25:46;12.40;99.90
47765;DHT22;33529;49.242;8.670;2023-04-23T01:28:13;12.40;99.90
47765;DHT22;33529;49.242;8.670;2023-04-23T01:30:42;12.40;99.90
47765;DHT22;33529;49.242;8.670;2023-04-23T01:33:10;12.40;99.90
47765;DHT22;33529;49.242;8.670;2023-04-23T01:35:38;12.40;99.90
47765;DHT22;33529;49.242;8.670;2023-04-23T01:38:08;12.40;99.90
47765;DHT22;33529;49.242;8.670;2023-04-23T01:40:36;12.40;99.90
47765;DHT22;33529;49.242;8.670;2023-04-23T01:43:04;12.40;99.90
47765;DHT22;33529;49.242;8.670;2023-04-23T01:45:32;12.40;99.90
47765;DHT22;33529;49.242;8.670;2023-04-23T01:47:59;12.40;99.90
47765;DHT22;33529;49.242;8.670;2023-04-23T01:50:26;12.40;99.90
47765;DHT22;33529;49.242;8.670;2023-04-23T01:52:55;12.40;99.90
47765;DHT22;33529;49.242;8.670;2023-04-23T01:55:22;12.40;99.90
47765;DHT22;33529;49.242;8.670;2023-04-23T01:57:49;12.40;99.90
47765;DHT22;33529;49.242;8.670;2023-04-23T02:00:17;12.40;99.90
47765;DHT22;33529;49.242;8.670;2023-04-23T02:02:44;12.40;99.90
47765;DHT22;33529;49.242;8.670;2023-04-23T02:05:13;12.40;99.90
47765;DHT22;33529;49.242;8.670;2023-04-23T02:07:41;12.40;99.90
47765;DHT22;33529;49.242;8.670;2023-04-23T02:10:09;12.40;99.90
47765;DHT22;33529;49.242;8.670;2023-04-23T02:12:37;12.40;99.90
47765;DHT22;33529;49.242;8.670;2023-04-23T02:15:05;12.50;99.90
47765;DHT22;33529;49.242;8.670;2023-04-23T02:17:33;12.50;99.90
47765;DHT22;33529;49.242;8.670;2023-04-23T02:20:01;12.50;99.90
47765;DHT22;33529;49.242;8.670;2023-04-23T02:22:28;12.40;99.90
47765;DHT22;33529;49.242;8.670;2023-04-23T02:24:55;12.40;99.90
47765;DHT22;33529;49.242;8.670;2023-04-23T02:27:22;12.40;99.90
47765;DHT22;33529;49.242;8.670;2023-04-23T02:29:49;12.30;99.90
47765;DHT22;33529;49.242;8.670;2023-04-23T02:32:15;12.30;99.90
47765;DHT22;33529;49.242;8.670;2023-04-23T02:34:42;12.30;99.90
47765;DHT22;33529;49.242;8.670;2023-04-23T02:37:09;12.30;99.90
47765;DHT22;33529;49.242;8.670;2023-04-23T02:39:36;12.30;99.90
47765;DHT22;33529;49.242;8.670;2023-04-23T02:42:07;12.40;99.90
47765;DHT22;33529;49.242;8.670;2023-04-23T02:44:34;12.40;99.90
47765;DHT22;33529;49.242;8.670;2023-04-23T02:47:01;12.40;99.90
47765;DHT22;33529;49.242;8.670;2023-04-23T02:49:28;12.40;99.90
47765;DHT22;33529;49.242;8.670;2023-04-23T02:51:55;12.40;99.90
47765;DHT22;33529;49.242;8.670;2023-04-23T02:54:23;12.50;99.90
47765;DHT22;33529;49.242;8.670;2023-04-23T02:56:50;12.40;99.90
47765;DHT22;33529;49.242;8.670;2023-04-23T02:59:17;12.40;99.90
47765;DHT22;33529;49.242;8.670;2023-04-23T03:01:43;12.40;99.90
47765;DHT22;33529;49.242;8.670;2023-04-23T03:04:13;12.30;99.90
47765;DHT22;33529;49.242;8.670;2023-04-23T03:06:40;12.30;99.90
47765;DHT22;33529;49.242;8.670;2023-04-23T03:09:07;12.20;99.90
47765;DHT22;33529;49.242;8.670;2023-04-23T03:11:34;12.20;99.90
47765;DHT22;33529;49.242;8.670;2023-04-23T03:14:01;12.10;99.90
47765;DHT22;33529;49.242;8.670;2023-04-23T03:16:29;12.00;99.90
47765;DHT22;33529;49.242;8.670;2023-04-23T03:18:57;11.90;99.90
47765;DHT22;33529;49.242;8.670;2023-04-23T03:21:24;11.90;99.90
47765;DHT22;33529;49.242;8.670;2023-04-23T03:23:51;11.80;99.90
47765;DHT22;33529;49.242;8.670;2023-04-23T03:26:18;11.80;99.90
47765;DHT22;33529;49.242;8.670;2023-04-23T03:28:45;11.90;99.90
47765;DHT22;33529;49.242;8.670;2023-04-23T03:31:12;11.90;99.90
47765;DHT22;33529;49.242;8.670;2023-04-23T03:33:39;11.80;99.90
47765;DHT22;33529;49.242;8.670;2023-04-23T03:36:06;11.90;99.90
47765;DHT22;33529;49.242;8.670;2023-04-23T03:38:33;11.80;99.90
47765;DHT22;33529;49.242;8.670;2023-04-23T03:41:01;11.80;99.90
47765;DHT22;33529;49.242;8.670;2023-04-23T03:43:28;11.80;99.90
47765;DHT22;33529;49.242;8.670;2023-04-23T03:46:17;11.70;99.90
47765;DHT22;33529;49.242;8.670;2023-04-23T03:48:44;11.70;99.90
47765;DHT22;33529;49.242;8.670;2023-04-23T03:51:18;11.60;99.90
47765;DHT22;33529;49.242;8.670;2023-04-23T03:53:48;11.70;99.90
47765;DHT22;33529;49.242;8.670;2023-04-23T03:56:32;11.60;99.90
47765;DHT22;33529;49.242;8.670;2023-04-23T03:59:11;11.60;99.90
47765;DHT22;33529;49.242;8.670;2023-04-23T04:01:38;11.50;99.90
47765;DHT22;33529;49.242;8.670;2023-04-23T04:04:04;11.50;99.90
47765;DHT22;33529;49.242;8.670;2023-04-23T04:06:32;11.40;99.90
47765;DHT22;33529;49.242;8.670;2023-04-23T04:08:59;11.40;99.90
47765;DHT22;33529;49.242;8.670;2023-04-23T04:11:26;11.50;99.90
47765;DHT22;33529;49.242;8.670;2023-04-23T04:13:53;11.40;99.90
47765;DHT22;33529;49.242;8.670;2023-04-23T04:16:20;11.40;99.90
47765;DHT22;33529;49.242;8.670;2023-04-23T04:18:46;11.30;99.90
47765;DHT22;33529;49.242;8.670;2023-04-23T04:21:13;11.30;99.90
47765;DHT22;33529;49.242;8.670;2023-04-23T04:23:42;11.30;99.90
47765;DHT22;33529;49.242;8.670;2023-04-23T04:26:08;11.30;99.90
47765;DHT22;33529;49.242;8.670;2023-04-23T04:28:36;11.30;99.90
47765;DHT22;33529;49.242;8.670;2023-04-23T04:31:03;11.30;99.90
47765;DHT22;33529;49.242;8.670;2023-04-23T04:33:31;11.20;99.90
47765;DHT22;33529;49.242;8.670;2023-04-23T04:35:58;11.20;99.90
47765;DHT22;33529;49.242;8.670;2023-04-23T04:38:26;11.20;99.90
47765;DHT22;33529;49.242;8.670;2023-04-23T04:40:56;11.30;99.90
47765;DHT22;33529;49.242;8.670;2023-04-23T04:43:25;11.30;99.90
47765;DHT22;33529;49.242;8.670;2023-04-23T04:45:52;11.40;99.90
47765;DHT22;33529;49.242;8.670;2023-04-23T04:48:19;11.40;99.90
47765;DHT22;33529;49.242;8.670;2023-04-23T04:50:46;11.40;99.90
47765;DHT22;33529;49.242;8.670;2023-04-23T04:53:13;11.40;99.90
47765;DHT22;33529;49.242;8.670;2023-04-23T04:55:40;11.40;99.90
47765;DHT22;33529;49.242;8.670;2023-04-23T04:58:07;11.30;99.90
47765;DHT22;33529;49.242;8.670;2023-04-23T05:00:34;11.40;99.90
47765;DHT22;33529;49.242;8.670;2023-04-23T05:03:01;11.40;99.90
47765;DHT22;33529;49.242;8.670;2023-04-23T05:05:29;11.40;99.90
47765;DHT22;33529;49.242;8.670;2023-04-23T05:07:56;11.50;99.90
47765;DHT22;33529;49.242;8.670;2023-04-23T05:10:28;11.50;99.90
47765;DHT22;33529;49.242;8.670;2023-04-23T05:12:56;11.60;99.90
47765;DHT22;33529;49.242;8.670;2023-04-23T05:15:23;11.70;99.90
47765;DHT22;33529;49.242;8.670;2023-04-23T05:17:50;11.70;99.90
47765;DHT22;33529;49.242;8.670;2023-04-23T05:20:20;11.70;99.90
47765;DHT22;33529;49.242;8.670;2023-04-23T05:22:47;11.80;99.90
47765;DHT22;33529;49.242;8.670;2023-04-23T05:25:14;11.80;99.90
47765;DHT22;33529;49.242;8.670;2023-04-23T05:27:41;11.80;99.90
47765;DHT22;33529;49.242;8.670;2023-04-23T05:30:09;11.80;99.90
47765;DHT22;33529;49.242;8.670;2023-04-23T05:32:36;11.80;99.90
47765;DHT22;33529;49.242;8.670;2023-04-23T05:35:04;11.90;99.90
47765;DHT22;33529;49.242;8.670;2023-04-23T05:37:34;12.00;99.90
47765;DHT22;33529;49.242;8.670;2023-04-23T05:40:01;12.00;99.90
47765;DHT22;33529;49.242;8.670;2023-04-23T05:42:28;12.10;99.90
47765;DHT22;33529;49.242;8.670;2023-04-23T05:45:00;12.20;99.90
47765;DHT22;33529;49.242;8.670;2023-04-23T05:47:28;12.20;99.90
47765;DHT22;33529;49.242;8.670;2023-04-23T05:49:55;12.20;99.90
47765;DHT22;33529;49.242;8.670;2023-04-23T05:52:26;12.30;99.90
47765;DHT22;33529;49.242;8.670;2023-04-23T05:54:52;12.40;99.90
47765;DHT22;33529;49.242;8.670;2023-04-23T05:57:20;12.50;99.90
47765;DHT22;33529;49.242;8.670;2023-04-23T05:59:46;12.50;99.90
47765;DHT22;33529;49.242;8.670;2023-04-23T06:02:13;12.70;99.90
47765;DHT22;33529;49.242;8.670;2023-04-23T06:04:41;12.70;99.90
47765;DHT22;33529;49.242;8.670;2023-04-23T06:07:09;12.70;99.90
47765;DHT22;33529;49.242;8.670;2023-04-23T06:09:35;12.80;99.90
47765;DHT22;33529;49.242;8.670;2023-04-23T06:12:02;12.80;99.90
47765;DHT22;33529;49.242;8.670;2023-04-23T06:14:29;12.70;99.90
47765;DHT22;33529;49.242;8.670;2023-04-23T06:16:56;12.80;99.90
47765;DHT22;33529;49.242;8.670;2023-04-23T06:19:23;12.80;99.90
47765;DHT22;33529;49.242;8.670;2023-04-23T06:21:53;12.90;99.90
47765;DHT22;33529;49.242;8.670;2023-04-23T06:24:20;12.90;99.90
47765;DHT22;33529;49.242;8.670;2023-04-23T06:26:47;13.00;99.90
47765;DHT22;33529;49.242;8.670;2023-04-23T06:29:20;13.00;99.90
47765;DHT22;33529;49.242;8.670;2023-04-23T06:32:00;13.00;99.90
47765;DHT22;33529;49.242;8.670;2023-04-23T06:34:27;13.10;99.90
47765;DHT22;33529;49.242;8.670;2023-04-23T06:36:54;13.10;99.90
47765;DHT22;33529;49.242;8.670;2023-04-23T06:39:20;13.20;99.90
47765;DHT22;33529;49.242;8.670;2023-04-23T06:41:49;13.20;99.90
47765;DHT22;33529;49.242;8.670;2023-04-23T06:44:33;13.30;99.90
47765;DHT22;33529;49.242;8.670;2023-04-23T06:47:01;13.40;99.90
47765;DHT22;33529;49.242;8.670;2023-04-23T06:49:29;13.50;99.90
47765;DHT22;33529;49.242;8.670;2023-04-23T06:51:56;13.50;99.90
47765;DHT22;33529;49.242;8.670;2023-04-23T06:54:23;13.50;99.90
47765;DHT22;33529;49.242;8.670;2023-04-23T06:56:50;13.60;99.90
47765;DHT22;33529;49.242;8.670;2023-04-23T06:59:17;13.70;99.90
47765;DHT22;33529;49.242;8.670;2023-04-23T07:01:49;13.80;99.90
47765;DHT22;33529;49.242;8.670;2023-04-23T07:04:15;13.80;99.90
47765;DHT22;33529;49.242;8.670;2023-04-23T07:06:43;13.90;99.90
47765;DHT22;33529;49.242;8.670;2023-04-23T07:09:10;14.10;99.90
47765;DHT22;33529;49.242;8.670;2023-04-23T07:11:37;14.20;99.90
47765;DHT22;33529;49.242;8.670;2023-04-23T07:14:04;14.20;99.90
47765;DHT22;33529;49.242;8.670;2023-04-23T07:16:32;14.30;99.90
47765;DHT22;33529;49.242;8.670;2023-04-23T07:19:00;14.50;99.90
47765;DHT22;33529;49.242;8.670;2023-04-23T07:21:28;14.70;99.90
47765;DHT22;33529;49.242;8.670;2023-04-23T07:23:56;15.00;99.90
47765;DHT22;33529;49.242;8.670;2023-04-23T07:26:23;15.30;99.90
47765;DHT22;33529;49.242;8.670;2023-04-23T07:28:50;15.50;99.90
47765;DHT22;33529;49.242;8.670;2023-04-23T07:31:18;15.60;99.90
47765;DHT22;33529;49.242;8.670;2023-04-23T07:33:46;15.70;99.90
47765;DHT22;33529;49.242;8.670;2023-04-23T07:36:13;15.80;99.90
47765;DHT22;33529;49.242;8.670;2023-04-23T07:38:40;16.00;99.90
47765;DHT22;33529;49.242;8.670;2023-04-23T07:41:07;16.10;99.90
47765;DHT22;33529;49.242;8.670;2023-04-23T07:43:34;16.30;99.90
47765;DHT22;33529;49.242;8.670;2023-04-23T07:46:00;16.40;99.90
47765;DHT22;33529;49.242;8.670;2023-04-23T07:48:27;16.40;99.90
47765;DHT22;33529;49.242;8.670;2023-04-23T07:50:54;16.40;99.90
47765;DHT22;33529;49.242;8.670;2023-04-23T07:53:22;16.40;99.90
47765;DHT22;33529;49.242;8.670;2023-04-23T07:55:48;16.80;99.90
47765;DHT22;33529;49.242;8.670;2023-04-23T07:58:15;17.10;99.90
47765;DHT22;33529;49.242;8.670;2023-04-23T08:00:42;17.30;99.90
47765;DHT22;33529;49.242;8.670;2023-04-23T08:03:10;17.60;99.90
47765;DHT22;33529;49.242;8.670;2023-04-23T08:05:37;17.60;99.90
47765;DHT22;33529;49.242;8.670;2023-04-23T08:08:07;17.40;99.90
47765;DHT22;33529;49.242;8.670;2023-04-23T08:10:34;17.50;99.90
47765;DHT22;33529;49.242;8.670;2023-04-23T08:13:01;17.90;99.90
47765;DHT22;33529;49.242;8.670;2023-04-23T08:15:28;18.20;99.90
47765;DHT22;33529;49.242;8.670;2023-04-23T08:17:55;18.40;99.90
47765;DHT22;33529;49.242;8.670;2023-04-23T08:20:22;18.30;99.90
47765;DHT22;33529;49.242;8.670;2023-04-23T08:22:50;18.20;99.90
47765;DHT22;33529;49.242;8.670;2023-04-23T08:25:19;18.10;99.90
47765;DHT22;33529;49.242;8.670;2023-04-23T08:27:49;18.10;99.90
47765;DHT22;33529;49.242;8.670;2023-04-23T08:30:16;17.90;99.90
47765;DHT22;33529;49.242;8.670;2023-04-23T08:32:43;17.40;99.90
47765;DHT22;33529;49.242;8.670;2023-04-23T08:35:10;17.30;99.90
47765;DHT22;33529;49.242;8.670;2023-04-23T08:37:36;17.20;99.90
47765;DHT22;33529;49.242;8.670;2023-04-23T08:40:06;17.30;99.90
47765;DHT22;33529;49.242;8.670;2023-04-23T08:45:08;17.40;99.90
47765;DHT22;33529;49.242;8.670;2023-04-23T08:47:39;17.30;99.90
47765;DHT22;33529;49.242;8.670;2023-04-23T08:50:10;17.20;99.90
47765;DHT22;33529;49.242;8.670;2023-04-23T08:52:40;17.00;99.90
47765;DHT22;33529;49.242;8.670;2023-04-23T08:55:08;16.90;99.90
47765;DHT22;33529;49.242;8.670;2023-04-23T08:57:38;16.90;99.90
47765;DHT22;33529;49.242;8.670;2023-04-23T09:00:07;17.00;99.90
47765;DHT22;33529;49.242;8.670;2023-04-23T09:02:36;17.00;99.90
47765;DHT22;33529;49.242;8.670;2023-04-23T09:05:06;17.10;99.90
47765;DHT22;33529;49.242;8.670;2023-04-23T09:07:34;17.30;99.90
47765;DHT22;33529;49.242;8.670;2023-04-23T09:10:03;17.40;99.90
47765;DHT22;33529;49.242;8.670;2023-04-23T09:12:30;17.50;99.90
47765;DHT22;33529;49.242;8.670;2023-04-23T09:14:57;17.80;99.90
47765;DHT22;33529;49.242;8.670;2023-04-23T09:17:28;18.00;99.90
47765;DHT22;33529;49.242;8.670;2023-04-23T09:19:55;18.10;99.90
47765;DHT22;33529;49.242;8.670;2023-04-23T09:22:44;18.20;99.90
47765;DHT22;33529;49.242;8.670;2023-04-23T09:25:18;18.40;99.90
47765;DHT22;33529;49.242;8.670;2023-04-23T09:27:48;18.70;99.90
47765;DHT22;33529;49.242;8.670;2023-04-23T09:30:15;18.90;99.90
47765;DHT22;33529;49.242;8.670;2023-04-23T09:32:44;18.90;99.90
47765;DHT22;33529;49.242;8.670;2023-04-23T09:35:13;18.90;99.90
47765;DHT22;33529;49.242;8.670;2023-04-23T09:37:42;19.10;99.90
47765;DHT22;33529;49.242;8.670;2023-04-23T09:40:15;19.20;99.90
47765;DHT22;33529;49.242;8.670;2023-04-23T09:42:47;19.50;99.90
47765;DHT22;33529;49.242;8.670;2023-04-23T09:45:16;19.70;99.90
47765;DHT22;33529;49.242;8.670;2023-04-23T09:47:51;19.80;99.90
47765;DHT22;33529;49.242;8.670;2023-04-23T09:50:30;19.80;99.90
47765;DHT22;33529;49.242;8.670;2023-04-23T09:52:58;19.80;99.90
47765;DHT22;33529;49.242;8.670;2023-04-23T09:55:34;19.80;99.90
47765;DHT22;33529;49.242;8.670;2023-04-23T09:58:04;20.00;99.90
47765;DHT22;33529;49.242;8.670;2023-04-23T10:00:37;20.10;99.90
47765;DHT22;33529;49.242;8.670;2023-04-23T10:03:05;20.20;99.90
47765;DHT22;33529;49.242;8.670;2023-04-23T10:05:41;20.20;99.80
47765;DHT22;33529;49.242;8.670;2023-04-23T10:08:12;20.10;99.80
47765;DHT22;33529;49.242;8.670;2023-04-23T10:10:40;20.10;99.90
47765;DHT22;33529;49.242;8.670;2023-04-23T10:13:27;20.10;99.90
47765;DHT22;33529;49.242;8.670;2023-04-23T10:15:54;20.20;99.90
47765;DHT22;33529;49.242;8.670;2023-04-23T10:18:31;20.60;99.90
47765;DHT22;33529;49.242;8.670;2023-04-23T10:21:00;20.60;99.90
47765;DHT22;33529;49.242;8.670;2023-04-23T10:23:27;20.80;99.90
47765;DHT22;33529;49.242;8.670;2023-04-23T10:25:56;20.90;99.90
47765;DHT22;33529;49.242;8.670;2023-04-23T10:28:25;20.90;99.90
47765;DHT22;33529;49.242;8.670;2023-04-23T10:30:57;20.70;99.90
47765;DHT22;33529;49.242;8.670;2023-04-23T10:33:25;20.50;99.90
47765;DHT22;33529;49.242;8.670;2023-04-23T10:36:01;20.60;99.90
47765;DHT22;33529;49.242;8.670;2023-04-23T10:38:28;20.70;99.90
47765;DHT22;33529;49.242;8.670;2023-04-23T10:40:57;20.70;99.90
47765;DHT22;33529;49.242;8.670;2023-04-23T10:43:26;20.80;99.30
47765;DHT22;33529;49.242;8.670;2023-04-23T10:45:53;20.70;97.60
47765;DHT22;33529;49.242;8.670;2023-04-23T10:48:20;20.70;98.40
47765;DHT22;33529;49.242;8.670;2023-04-23T10:50:56;20.70;99.90
47765;DHT22;33529;49.242;8.670;2023-04-23T10:53:44;20.80;99.90
47765;DHT22;33529;49.242;8.670;2023-04-23T10:56:11;21.00;99.20
47765;DHT22;33529;49.242;8.670;2023-04-23T10:58:48;21.10;98.70
47765;DHT22;33529;49.242;8.670;2023-04-23T11:01:16;21.10;97.90
47765;DHT22;33529;49.242;8.670;2023-04-23T11:03:44;21.00;96.80
47765;DHT22;33529;49.242;8.670;2023-04-23T11:06:13;21.00;98.60
47765;DHT22;33529;49.242;8.670;2023-04-23T11:08:51;20.90;97.60
47765;DHT22;33529;49.242;8.670;2023-04-23T11:11:38;20.90;95.40
47765;DHT22;33529;49.242;8.670;2023-04-23T11:14:13;20.70;96.40
47765;DHT22;33529;49.242;8.670;2023-04-23T11:16:40;20.70;97.30
47765;DHT22;33529;49.242;8.670;2023-04-23T11:19:10;20.80;99.90
47765;DHT22;33529;49.242;8.670;2023-04-23T11:22:06;20.70;99.90
47765;DHT22;33529;49.242;8.670;2023-04-23T11:24:37;20.60;99.10
47765;DHT22;33529;49.242;8.670;2023-04-23T11:27:13;20.90;98.80
47765;DHT22;33529;49.242;8.670;2023-04-23T11:29:41;21.20;99.80
47765;DHT22;33529;49.242;8.670;2023-04-23T11:32:10;21.50;95.70
47765;DHT22;33529;49.242;8.670;2023-04-23T11:34:47;21.30;99.20
47765;DHT22;33529;49.242;8.670;2023-04-23T11:37:17;21.50;97.60
47765;DHT22;33529;49.242;8.670;2023-04-23T11:39:45;21.50;98.30
47765;DHT22;33529;49.242;8.670;2023-04-23T11:42:15;21.40;98.40
47765;DHT22;33529;49.242;8.670;2023-04-23T11:44:45;21.30;95.30
47765;DHT22;33529;49.242;8.670;2023-04-23T11:47:14;21.10;93.70
47765;DHT22;33529;49.242;8.670;2023-04-23T11:49:42;20.80;98.80
47765;DHT22;33529;49.242;8.670;2023-04-23T11:52:11;20.70;99.90
47765;DHT22;33529;49.242;8.670;2023-04-23T11:54:41;20.80;96.70
47765;DHT22;33529;49.242;8.670;2023-04-23T11:57:08;21.10;96.80
47765;DHT22;33529;49.242;8.670;2023-04-23T11:59:35;21.20;99.20
47765;DHT22;33529;49.242;8.670;2023-04-23T12:02:02;21.40;97.90
47765;DHT22;33529;49.242;8.670;2023-04-23T12:04:30;21.70;95.30
47765;DHT22;33529;49.242;8.670;2023-04-23T12:06:58;21.80;94.70
47765;DHT22;33529;49.242;8.670;2023-04-23T12:09:27;21.90;94.90
47765;DHT22;33529;49.242;8.670;2023-04-23T12:11:55;21.80;92.60
47765;DHT22;33529;49.242;8.670;2023-04-23T12:14:27;21.70;96.00
47765;DHT22;33529;49.242;8.670;2023-04-23T12:16:56;21.70;94.50
47765;DHT22;33529;49.242;8.670;2023-04-23T12:19:27;21.60;93.30
47765;DHT22;33529;49.242;8.670;2023-04-23T12:22:00;21.30;96.70
47765;DHT22;33529;49.242;8.670;2023-04-23T12:24:47;21.30;99.00
47765;DHT22;33529;49.242;8.670;2023-04-23T12:27:19;21.50;99.00
47765;DHT22;33529;49.242;8.670;2023-04-23T12:29:58;21.50;96.70
47765;DHT22;33529;49.242;8.670;2023-04-23T12:32:25;21.40;97.80
47765;DHT22;33529;49.242;8.670;2023-04-23T12:34:56;21.20;97.50
47765;DHT22;33529;49.242;8.670;2023-04-23T12:37:29;20.90;98.10
47765;DHT22;33529;49.242;8.670;2023-04-23T12:39:56;21.00;98.70
47765;DHT22;33529;49.242;8.670;2023-04-23T12:42:25;21.00;98.40
47765;DHT22;33529;49.242;8.670;2023-04-23T12:44:52;21.20;98.20
47765;DHT22;33529;49.242;8.670;2023-04-23T12:47:21;21.50;99.90
47765;DHT22;33529;49.242;8.670;2023-04-23T12:49:49;21.50;94.10
47765;DHT22;33529;49.242;8.670;2023-04-23T12:52:19;21.50;94.90
47765;DHT22;33529;49.242;8.670;2023-04-23T12:54:49;21.60;94.90
47765;DHT22;33529;49.242;8.670;2023-04-23T12:57:22;21.20;96.70
47765;DHT22;33529;49.242;8.670;2023-04-23T12:59:50;21.30;96.90
47765;DHT22;33529;49.242;8.670;2023-04-23T13:02:17;21.30;97.50
47765;DHT22;33529;49.242;8.670;2023-04-23T13:04:44;21.20;97.80
47765;DHT22;33529;49.242;8.670;2023-04-23T13:07:10;21.30;96.70
47765;DHT22;33529;49.242;8.670;2023-04-23T13:09:37;21.40;93.80
47765;DHT22;33529;49.242;8.670;2023-04-23T13:12:04;21.30;95.40
47765;DHT22;33529;49.242;8.670;2023-04-23T13:14:33;21.30;98.60
47765;DHT22;33529;49.242;8.670;2023-04-23T13:17:01;21.40;97.50
47765;DHT22;33529;49.242;8.670;2023-04-23T13:19:29;21.40;97.10
47765;DHT22;33529;49.242;8.670;2023-04-23T13:21:56;21.40;96.40
47765;DHT22;33529;49.242;8.670;2023-04-23T13:24:23;21.10;94.30
47765;DHT22;33529;49.242;8.670;2023-04-23T13:26:51;20.90;92.80
47765;DHT22;33529;49.242;8.670;2023-04-23T13:29:17;20.80;96.60
47765;DHT22;33529;49.242;8.670;2023-04-23T13:31:44;20.70;96.80
47765;DHT22;33529;49.242;8.670;2023-04-23T13:34:11;20.80;95.30
47765;DHT22;33529;49.242;8.670;2023-04-23T13:36:38;20.90;94.30
47765;DHT22;33529;49.242;8.670;2023-04-23T13:39:07;21.20;95.90
47765;DHT22;33529;49.242;8.670;2023-04-23T13:41:37;21.60;94.60
47765;DHT22;33529;49.242;8.670;2023-04-23T13:44:04;21.70;94.50
47765;DHT22;33529;49.242;8.670;2023-04-23T13:46:31;21.90;92.70
47765;DHT22;33529;49.242;8.670;2023-04-23T13:48:59;21.70;93.00
47765;DHT22;33529;49.242;8.670;2023-04-23T13:51:26;21.70;95.40
47765;DHT22;33529;49.242;8.670;2023-04-23T13:53:58;22.00;92.70
47765;DHT22;33529;49.242;8.670;2023-04-23T13:56:28;22.20;92.60
47765;DHT22;33529;49.242;8.670;2023-04-23T13:58:56;22.20;95.60
47765;DHT22;33529;49.242;8.670;2023-04-23T14:01:43;22.40;94.50
47765;DHT22;33529;49.242;8.670;2023-04-23T14:04:12;22.60;95.40
47765;DHT22;33529;49.242;8.670;2023-04-23T14:06:39;22.50;93.50
47765;DHT22;33529;49.242;8.670;2023-04-23T14:09:06;22.60;95.50
47765;DHT22;33529;49.242;8.670;2023-04-23T14:11:33;22.60;94.50
47765;DHT22;33529;49.242;8.670;2023-04-23T14:14:00;22.50;92.50
47765;DHT22;33529;49.242;8.670;2023-04-23T14:16:27;22.50;92.60
47765;DHT22;33529;49.242;8.670;2023-04-23T14:18:54;22.50;93.30
47765;DHT22;33529;49.242;8.670;2023-04-23T14:21:21;22.30;91.70
47765;DHT22;33529;49.242;8.670;2023-04-23T14:24:00;22.30;91.50
47765;DHT22;33529;49.242;8.670;2023-04-23T14:29:18;22.10;95.70
47765;DHT22;33529;49.242;8.670;2023-04-23T14:31:50;22.10;94.00
47765;DHT22;33529;49.242;8.670;2023-04-23T14:34:17;22.10;94.10
47765;DHT22;33529;49.242;8.670;2023-04-23T14:36:43;22.30;93.50
47765;DHT22;33529;49.242;8.670;2023-04-23T14:39:12;22.30;94.50
47765;DHT22;33529;49.242;8.670;2023-04-23T14:41:39;22.30;95.00
47765;DHT22;33529;49.242;8.670;2023-04-23T14:44:06;22.40;94.90
47765;DHT22;33529;49.242;8.670;2023-04-23T14:46:33;22.30;91.50
47765;DHT22;33529;49.242;8.670;2023-04-23T14:49:00;22.40;93.80
47765;DHT22;33529;49.242;8.670;2023-04-23T14:51:27;22.50;93.80
47765;DHT22;33529;49.242;8.670;2023-04-23T14:53:54;22.40;92.10
47765;DHT22;33529;49.242;8.670;2023-04-23T14:56:22;22.20;92.50
47765;DHT22;33529;49.242;8.670;2023-04-23T14:58:49;22.10;93.40
47765;DHT22;33529;49.242;8.670;2023-04-23T15:01:16;22.10;91.90
47765;DHT22;33529;49.242;8.670;2023-04-23T15:03:43;22.10;92.20
47765;DHT22;33529;49.242;8.670;2023-04-23T15:06:11;22.20;93.70
47765;DHT22;33529;49.242;8.670;2023-04-23T15:08:38;22.20;94.20
47765;DHT22;33529;49.242;8.670;2023-04-23T15:11:07;22.00;91.90
47765;DHT22;33529;49.242;8.670;2023-04-23T15:16:34;22.10;92.80
47765;DHT22;33529;49.242;8.670;2023-04-23T15:19:15;22.20;95.60
47765;DHT22;33529;49.242;8.670;2023-04-23T15:21:44;22.30;94.90
47765;DHT22;33529;49.242;8.670;2023-04-23T15:24:11;22.60;94.00
47765;DHT22;33529;49.242;8.670;2023-04-23T15:26:38;22.80;92.90
47765;DHT22;33529;49.242;8.670;2023-04-23T15:29:05;23.30;92.60
47765;DHT22;33529;49.242;8.670;2023-04-23T15:31:40;23.50;91.70
47765;DHT22;33529;49.242;8.670;2023-04-23T15:34:08;23.60;91.90
47765;DHT22;33529;49.242;8.670;2023-04-23T15:36:35;23.50;91.10
47765;DHT22;33529;49.242;8.670;2023-04-23T15:39:03;23.00;92.90
47765;DHT22;33529;49.242;8.670;2023-04-23T15:41:30;22.80;92.40
47765;DHT22;33529;49.242;8.670;2023-04-23T15:43:57;22.50;92.20
47765;DHT22;33529;49.242;8.670;2023-04-23T15:46:25;22.30;94.50
47765;DHT22;33529;49.242;8.670;2023-04-23T15:48:52;22.00;94.80